Tiempo atmosférico en la estación meteorológica de Fresno de Cantiespino, Segovia (993 m.)



Fecha
DESCASC
Temp. máxima en grados centígrados (hora)
DESCASC
Temp. mínima en grados centígrados (hora)
DESCASC
Temp. media en grados centígrados
DESCASC
Racha de viento máxima en m/sg (hora)
DESCASC
Velocidad máxima media en intervalos de 10 minutos(hora)
DESCASC
Precipitaciones diarias en mm
DESCASC
Precipitaciones de 00:00 a 06:00 en mm
DESCASC
Precipitaciones de 06:00 a 12:00 en mm
DESCASC
Precipitaciones de 12:00 a 18:00 en mm
DESCASC
Precipitaciones de 18:00 a 24:00 en mm
DESCASC

Gráficas

Temp. máximas Temp. mínimas Temp. medias Precipitaciones Rachas de viento máximas Velocidades máximas media en intervalos de 10 minutos

Datos horarios

Fecha y hora oficial Temperatura (ºC) Velocidad del viento (km/h) Dirección del viento Racha (km/h) Dirección de racha Precipitación (mm) Presión (hPa) Tendencia (hPa) Humedad (%)
2019-02-17 23:00:00 2.7 0 Calma 8 Norte 0 -- -- 56
2019-02-17 22:00:00 3.9 4 Nordeste 6 Nordeste 0 -- -- 51
2019-02-17 21:00:00 7.5 0 Calma 21 Sur 0 -- -- 38
2019-02-17 20:00:00 8.9 15 Sur 26 Sur 0 -- -- 34
2019-02-17 19:00:00 9.4 5 Sudoeste 25 Sur 0 -- -- 33
2019-02-17 18:00:00 11.8 17 Sur 33 Sur 0 -- -- 25
2019-02-17 17:00:00 13.9 17 Sudoeste 33 Sudoeste 0 -- -- 24
2019-02-17 16:00:00 15 12 Sudeste 24 Sudeste 0 -- -- 22
2019-02-17 15:00:00 15.6 10 Sudeste 28 Sur 0 -- -- 22
2019-02-17 14:00:00 15.6 15 Sur 29 Sur 0 -- -- 23
2019-02-17 13:00:00 12.6 2 Noroeste 6 Nordeste 0 -- -- 33
2019-02-17 12:00:00 8.7 5 Norte 10 Norte 0 -- -- 42
2019-02-17 11:00:00 6.3 3 Nordeste 6 Nordeste 0 -- -- 56
2019-02-17 10:00:00 1.8 0 Calma 6 Nordeste 0 -- -- 67
2019-02-17 09:00:00 -1.8 3 Sudoeste 8 Sur 0 -- -- 80
2019-02-17 08:00:00 -4.5 0 Calma 5 Sur 0 -- -- 80
2019-02-17 07:00:00 -3.3 3 Sudoeste 6 Sudoeste 0 -- -- 81
2019-02-17 06:00:00 -3 3 Sudoeste 6 Sudoeste 0 -- -- 76
2019-02-17 05:00:00 -2.3 4 Sur 10 Sur 0 -- -- 72
2019-02-17 04:00:00 -1.1 6 Sur 8 Sur 0 -- -- 70
2019-02-17 03:00:00 1.8 0 Calma 10 Sudoeste 0 -- -- 62
2019-02-17 02:00:00 1.5 3 Oeste 13 Sur 0 -- -- 62
2019-02-17 01:00:00 2.6 0 Calma 5 Sudeste 0 -- -- 59
2019-02-17 00:00:00 6.2 0 Calma 18 Sur 0 -- -- 46
2019-02-16 23:00:00 9.7 12 Sur 27 Sudeste 0 -- -- 34
2019-02-16 22:00:00 9.4 13 Sur 24 Sur 0 -- -- 38
2019-02-16 21:00:00 9.6 12 Sur 26 Sur 0 -- -- 37
2019-02-16 20:00:00 9.5 12 Sur 19 Sur 0 -- -- 37
2019-02-16 19:00:00 10.5 6 Sur 21 Sur 0 -- -- 36
2019-02-16 18:00:00 14.4 12 Sur 27 Sudoeste 0 -- -- 29
2019-02-16 17:00:00 16.6 9 Sur 15 Sur 0 -- -- 29
2019-02-16 16:00:00 17 6 Sur 16 Sur 0 -- -- 31
2019-02-16 15:00:00 16.1 5 Norte 10 Norte 0 -- -- 38
2019-02-16 14:00:00 15.2 3 Norte 11 Norte 0 -- -- 42
2019-02-16 13:00:00 13.1 6 Noroeste 10 Noroeste 0 -- -- 50
2019-02-16 12:00:00 9.2 3 Norte 6 Nordeste 0 -- -- 64
2019-02-16 11:00:00 5.7 2 Nordeste 8 Norte 0 -- -- 72
2019-02-16 10:00:00 2.5 2 Norte 5 Norte 0 -- -- 82
2019-02-16 09:00:00 -1.8 0 Calma 8 Sur 0 -- -- 94
2019-02-16 08:00:00 -4.6 0 Calma 9 Sudoeste 0 -- -- 94
2019-02-16 07:00:00 -5.1 5 Sur 7 Sudoeste 0 -- -- 92
2019-02-16 06:00:00 -4.6 6 Sur 9 Sur 0 -- -- 91
2019-02-16 05:00:00 -4.1 3 Sudoeste 8 Sur 0 -- -- 91
2019-02-16 04:00:00 -3.8 5 Sur 8 Sur 0 -- -- 91
2019-02-16 03:00:00 -3.2 5 Sur 8 Sudoeste 0 -- -- 89
2019-02-16 02:00:00 -2.9 6 Sur 8 Sur 0 -- -- 88
2019-02-16 01:00:00 -2 4 Sudoeste 9 Sur 0 -- -- 88
2019-02-16 00:00:00 -1.6 7 Sudoeste 8 Sudoeste 0 -- -- 84
2019-02-15 23:00:00 0.1 5 Sur 6 Sudoeste 0 -- -- 79
2019-02-15 22:00:00 4.4 2 Nordeste 5 Norte 0 -- -- 62
2019-02-15 21:00:00 6.3 3 Este 11 Este 0 -- -- 57
2019-02-15 20:00:00 5.8 0 Calma 6 Sur 0 -- -- 57
2019-02-15 19:00:00 9 0 Calma 9 Norte 0 -- -- 50
2019-02-15 18:00:00 14.4 7 Norte 13 Nordeste 0 -- -- 37
2019-02-15 17:00:00 15.7 8 Nordeste 14 Nordeste 0 -- -- 31
2019-02-15 16:00:00 16 8 Nordeste 18 Nordeste 0 -- -- 31
2019-02-15 15:00:00 16 6 Nordeste 15 Norte 0 -- -- 32
2019-02-15 14:00:00 15.3 8 Norte 18 Nordeste 0 -- -- 32
2019-02-15 13:00:00 13.7 11 Nordeste 15 Nordeste 0 -- -- 37
2019-02-15 12:00:00 10.2 5 Norte 8 Nordeste 0 -- -- 53
2019-02-15 11:00:00 6.1 2 Nordeste 4 Nordeste 0 -- -- 56
2019-02-15 10:00:00 2.5 0 Calma 2 Sudeste 0 -- -- 68
2019-02-15 09:00:00 -2.9 2 Sur 4 Sur 0 -- -- 89
2019-02-15 08:00:00 -5.4 2 Sur 6 Sur 0 -- -- 88
2019-02-15 07:00:00 -5.1 3 Sur 6 Sudoeste 0 -- -- 88
2019-02-15 06:00:00 -5 5 Sudoeste 8 Sudoeste 0 -- -- 87
2019-02-15 05:00:00 -4.4 3 Sur 7 Sudoeste 0 -- -- 86
2019-02-15 04:00:00 -4.1 5 Sur 8 Sur 0 -- -- 84
2019-02-15 03:00:00 -3.7 6 Sur 9 Sudoeste 0 -- -- 83
2019-02-15 02:00:00 -2.8 5 Sur 10 Sur 0 -- -- 81
2019-02-15 01:00:00 -2.5 8 Sudoeste 9 Sur 0 -- -- 79
2019-02-15 00:00:00 -1.6 2 Sur 8 Sur 0 -- -- 74
2019-02-14 23:00:00 -0.3 4 Sudoeste 5 Sur 0 -- -- 68
2019-02-14 22:00:00 3.3 2 Este 10 Nordeste 0 -- -- 51
2019-02-14 21:00:00 5.8 3 Sur 12 Sudoeste 0 -- -- 47
2019-02-14 20:00:00 7.3 6 Sudoeste 12 Sudoeste 0 -- -- 43
2019-02-14 19:00:00 11.1 9 Sur 18 Sur 0 -- -- 31
2019-02-14 18:00:00 16.6 11 Sudoeste 18 Sudoeste 0 -- -- 18
2019-02-14 17:00:00 17.8 4 Nordeste 8 Nordeste 0 -- -- 24
2019-02-14 16:00:00 17.3 5 Norte 10 Nordeste 0 -- -- 24
2019-02-14 15:00:00 16.9 4 Nordeste 10 Norte 0 -- -- 25
2019-02-14 14:00:00 15.6 2 Nordeste 12 Oeste 0 -- -- 27
2019-02-14 13:00:00 13.2 5 Norte 10 Noroeste 0 -- -- 32
2019-02-14 12:00:00 9.7 4 Norte 9 Nordeste 0 -- -- 46
2019-02-14 11:00:00 6.1 4 Norte 6 Norte 0 -- -- 58
2019-02-14 10:00:00 3 0 Calma 6 Sur 0 -- -- 73
2019-02-14 09:00:00 -2.2 5 Sur 8 Sur 0 -- -- 91
2019-02-14 08:00:00 -4.3 7 Sur 9 Sur 0 -- -- 91
2019-02-14 07:00:00 -3.9 3 Sudoeste 8 Sur 0 -- -- 91
2019-02-14 06:00:00 -3.7 3 Sur 8 Sudoeste 0 -- -- 86
2019-02-14 05:00:00 -3.1 0 Calma 10 Sudoeste 0 -- -- 89
2019-02-14 04:00:00 -3 7 Sudoeste 12 Sur 0 -- -- 88
2019-02-14 03:00:00 -2.9 6 Sur 12 Sur 0 -- -- 88
2019-02-14 02:00:00 -1.9 5 Sudoeste 13 Sudoeste 0 -- -- 84
2019-02-14 01:00:00 -1.6 6 Sudoeste 11 Sudoeste 0 -- -- 82
2019-02-14 00:00:00 -0.3 4 Sudoeste 8 Sur 0 -- -- 78
2019-02-13 23:00:00 1.1 3 Sudoeste 10 Sur 0 -- -- 75
2019-02-13 22:00:00 1.2 6 Sudoeste 12 Sudoeste 0 -- -- 74
2019-02-13 21:00:00 4.9 9 Sudoeste 15 Sudoeste 0 -- -- 68
2019-02-13 20:00:00 6.8 9 Sudoeste 15 Oeste 0 -- -- 61
2019-02-13 19:00:00 10.5 13 Oeste 17 Oeste 0 -- -- 45
2019-02-13 18:00:00 14.2 10 Noroeste 16 Nordeste 0 -- -- 39
2019-02-13 17:00:00 14.8 10 Norte 21 Nordeste 0 -- -- 37
2019-02-13 16:00:00 14.9 10 Nordeste 18 Nordeste 0 -- -- 34
2019-02-13 15:00:00 14.3 9 Norte 20 Nordeste 0 -- -- 34
2019-02-13 14:00:00 13.3 8 Nordeste 16 Nordeste 0 -- -- 37
2019-02-13 13:00:00 11.7 7 Nordeste 12 Norte 0 -- -- 44
2019-02-13 12:00:00 8.9 5 Nordeste 7 Nordeste 0 -- -- 51
2019-02-13 11:00:00 5.3 2 Nordeste 7 Nordeste 0 -- -- 69
2019-02-13 10:00:00 2 0 Calma 4 Sur 0 -- -- 82
2019-02-13 09:00:00 -2.2 3 Sudoeste 8 Sur 0 -- -- 92
2019-02-13 08:00:00 -4.4 5 Sur 8 Sudoeste 0 -- -- 93
2019-02-13 07:00:00 -4.4 5 Sudoeste 8 Sur 0 -- -- 90
2019-02-13 06:00:00 -3.8 6 Sur 7 Sur 0 -- -- 91
2019-02-13 05:00:00 -3.4 5 Sudoeste 8 Sudoeste 0 -- -- 91
2019-02-13 04:00:00 -3.1 5 Sudoeste 10 Sur 0 -- -- 90
2019-02-13 03:00:00 -3.1 8 Sudoeste 10 Sur 0 -- -- 90
2019-02-13 02:00:00 -2.6 7 Sudoeste 12 Sur 0 -- -- 89
2019-02-13 01:00:00 -1.5 6 Sudoeste 8 Sudoeste 0 -- -- 85
2019-02-13 00:00:00 0.2 5 Sudoeste 10 Sur 0 -- -- 82
2019-02-12 23:00:00 0.5 9 Sur 10 Sur 0 -- -- 82
2019-02-12 22:00:00 2.1 8 Sudoeste 11 Sudoeste 0 -- -- 75
2019-02-12 21:00:00 3.7 9 Sudoeste 12 Sudoeste 0 -- -- 70
2019-02-12 20:00:00 3.6 9 Sudoeste 14 Sur 0 -- -- 70
2019-02-12 19:00:00 8.9 3 Noroeste 10 Noroeste 0 -- -- 49
2019-02-12 18:00:00 11.8 8 Norte 19 Norte 0 -- -- 43
2019-02-12 17:00:00 13.5 15 Norte 20 Nordeste 0 -- -- 39
2019-02-12 16:00:00 14.8 11 Norte 18 Nordeste 0 -- -- 28
2019-02-12 15:00:00 14.5 10 Nordeste 23 Nordeste 0 -- -- 22
2019-02-12 14:00:00 13.5 16 Nordeste 25 Nordeste 0 -- -- 35
2019-02-12 13:00:00 12.2 17 Nordeste 23 Nordeste 0 -- -- 29
2019-02-12 12:00:00 8.4 15 Nordeste 22 Nordeste 0 -- -- 61
2019-02-12 11:00:00 3.6 7 Norte 10 Norte 0 -- -- 83
2019-02-12 10:00:00 -0.2 4 Norte 8 Norte 0 -- -- 91
2019-02-12 09:00:00 -2.3 4 Norte 6 Norte 0 -- -- 95
2019-02-12 08:00:00 -5.3 5 Sur 7 Sur 0 -- -- 94
2019-02-12 07:00:00 -4.9 3 Sur 7 Sur 0 -- -- 95
2019-02-12 06:00:00 -4.5 4 Sur 12 Sudoeste 0 -- -- 94
2019-02-12 05:00:00 -4.7 6 Sudoeste 9 Sur 0 -- -- 94
2019-02-12 04:00:00 -4.6 6 Sur 8 Sur 0 -- -- 94
2019-02-12 03:00:00 -4.2 3 Sur 9 Sudoeste 0 -- -- 94
2019-02-12 02:00:00 -3.9 5 Sudoeste 9 Sudoeste 0 -- -- 93
2019-02-12 01:00:00 -3.6 5 Sur 8 Sudoeste 0 -- -- 93
2019-02-12 00:00:00 -2.7 0 Calma 4 Sudoeste 0 -- -- 91
2019-02-11 23:00:00 -1.2 0 Calma 2 Nordeste 0 -- -- 89
2019-02-11 22:00:00 -1.4 0 Calma 5 Sudoeste 0 -- -- 88
2019-02-11 21:00:00 0.2 4 Sudoeste 6 Sudoeste 0 -- -- 84
2019-02-11 20:00:00 3.9 3 Nordeste 13 Norte 0 -- -- 73
2019-02-11 19:00:00 5.8 8 Noroeste 14 Noroeste 0 -- -- 68
2019-02-11 18:00:00 8.5 8 Noroeste 13 Norte 0 -- -- 56
2019-02-11 17:00:00 8.8 5 Norte 17 Noroeste 0 -- -- 52
2019-02-11 16:00:00 8.8 6 Norte 19 Norte 0 -- -- 52
2019-02-11 15:00:00 8 8 Nordeste 15 Norte 0 -- -- 55
2019-02-11 14:00:00 7.4 5 Norte 16 Norte 0 -- -- 54
2019-02-11 13:00:00 6.2 5 Norte 13 Norte 0 -- -- 62
2019-02-11 12:00:00 5.2 3 Sudeste 10 Norte 0 -- -- 67
2019-02-11 11:00:00 4 5 Norte 9 Norte 0 -- -- 73
2019-02-11 10:00:00 2.4 0 Calma 8 Sur 0 -- -- 88
2019-02-11 09:00:00 -1.5 4 Sudoeste 9 Sudoeste 0 -- -- 97
2019-02-11 08:00:00 -2.4 4 Sur 8 Sur 0 -- -- 95
2019-02-11 07:00:00 -1.2 0 Calma 6 Sur 0 -- -- 95
2019-02-11 06:00:00 0.2 6 Sur 9 Sudoeste 0 -- -- 95
2019-02-11 05:00:00 1.7 2 Sudoeste 9 Oeste 0 -- -- 93
2019-02-11 04:00:00 2.8 8 Oeste 16 Oeste 0 -- -- 94
2019-02-11 03:00:00 3.3 12 Oeste 17 Oeste 0 -- -- 90
2019-02-11 02:00:00 4.5 12 Sudoeste 17 Sudoeste 0 -- -- 85
2019-02-11 01:00:00 4.8 8 Oeste 14 Sudoeste 0 -- -- 85
2019-02-11 00:00:00 5.1 5 Sudoeste 18 Oeste 0 -- -- 84
2019-02-10 23:00:00 6.4 10 Oeste 30 Oeste 0.2 -- -- 80
2019-02-10 22:00:00 8 19 Sudoeste 35 Sudoeste 0 -- -- 93
2019-02-10 21:00:00 8.1 22 Sudoeste 35 Sudoeste 0 -- -- 92
2019-02-10 20:00:00 8.3 19 Sudoeste 39 Sudoeste 0 -- -- 92
2019-02-10 19:00:00 8.4 22 Sudoeste 39 Oeste 0 -- -- 91
2019-02-10 18:00:00 9.2 21 Oeste 41 Sudoeste 0 -- -- 90
2019-02-10 17:00:00 10.8 32 Oeste 50 Oeste 0 -- -- 77
2019-02-10 16:00:00 10.8 27 Oeste 50 Oeste 0 -- -- 75
2019-02-10 15:00:00 10.4 33 Sudoeste 52 Sudoeste 0 -- -- 74
2019-02-10 14:00:00 10.3 31 Sudoeste 50 Sudoeste 0 -- -- 74
2019-02-10 13:00:00 10 34 Sudoeste 50 Sudoeste 0 -- -- 73
2019-02-10 12:00:00 9.3 33 Sudoeste 57 Sudoeste 0 -- -- 73
2019-02-10 11:00:00 8.6 30 Sudoeste 53 Sudoeste 0 -- -- 74
2019-02-10 10:00:00 8.1 22 Sudoeste 49 Sudoeste 0 -- -- 74
2019-02-10 09:00:00 7.1 23 Sudoeste 40 Sudoeste 0 -- -- 75
2019-02-10 08:00:00 6.7 23 Sudoeste 37 Sudoeste 0 -- -- 74
2019-02-10 07:00:00 6.2 15 Sudoeste 36 Sudoeste 0 -- -- 75
2019-02-10 06:00:00 5.8 19 Sudoeste 33 Sudoeste 0 -- -- 77
2019-02-10 05:00:00 5.4 17 Sudoeste 26 Sudoeste 0 -- -- 79
2019-02-10 04:00:00 4.8 15 Sudoeste 23 Sudoeste 0 -- -- 82
2019-02-10 03:00:00 4.3 9 Sudoeste 17 Sudoeste 0 -- -- 84
2019-02-10 02:00:00 4.2 10 Sudoeste 22 Sudoeste 0 -- -- 84
2019-02-10 01:00:00 5 15 Sudoeste 27 Sudoeste 0 -- -- 83
2019-02-10 00:00:00 5.5 16 Sudoeste 27 Sudoeste 0 -- -- 82
2019-02-09 23:00:00 5.9 17 Sudoeste 31 Sudoeste 0 -- -- 78
2019-02-09 22:00:00 6.5 18 Sudoeste 30 Sudoeste 0 -- -- 73
2019-02-09 21:00:00 5.9 11 Sudoeste 18 Sudoeste 0 -- -- 79
2019-02-09 20:00:00 6.4 10 Sudoeste 17 Sudoeste 0 -- -- 78
2019-02-09 19:00:00 7.9 10 Sudoeste 21 Sudoeste 0 -- -- 71
2019-02-09 18:00:00 10.9 12 Sudoeste 23 Oeste 0 -- -- 58
2019-02-09 17:00:00 11.8 12 Oeste 23 Oeste 0 -- -- 53
2019-02-09 16:00:00 12.1 12 Sudoeste 21 Sudoeste 0 -- -- 56
2019-02-09 15:00:00 11.6 8 Oeste 20 Noroeste 0 -- -- 59
2019-02-09 14:00:00 10 12 Oeste 24 Oeste 0 -- -- 65
2019-02-09 13:00:00 9.3 6 Oeste 18 Oeste 0 -- -- 67
2019-02-09 12:00:00 7.8 11 Oeste 23 Sudoeste 0 -- -- 72
2019-02-09 11:00:00 7.4 13 Sudoeste 22 Sudoeste 0 -- -- 74
2019-02-09 10:00:00 6 7 Sudoeste 14 Sudoeste 0 -- -- 83
2019-02-09 09:00:00 5 8 Sudoeste 13 Oeste 0 -- -- 90
2019-02-09 08:00:00 4.7 7 Sudoeste 13 Oeste 0 -- -- 91
2019-02-09 07:00:00 4.6 3 Sur 12 Sudoeste 0 -- -- 92
2019-02-09 06:00:00 4.3 5 Sudoeste 9 Sudoeste 0 -- -- 94
2019-02-09 05:00:00 4 8 Sudoeste 10 Oeste 0 -- -- 96
2019-02-09 04:00:00 2.7 0 Calma 9 Norte 0 -- -- 95
2019-02-09 03:00:00 2.9 3 Sudoeste 14 Sudoeste 0 -- -- 94
2019-02-09 02:00:00 3.2 9 Sudoeste 15 Sudoeste 0 -- -- 91
2019-02-09 01:00:00 3.9 10 Sudoeste 16 Sudoeste 0 -- -- 89
2019-02-09 00:00:00 4.9 10 Sudoeste 23 Sudoeste 0 -- -- 86
2019-02-08 23:00:00 5.5 13 Sudoeste 23 Sudoeste 0 -- -- 85
2019-02-08 22:00:00 5.2 14 Sudoeste 21 Sudoeste 0 -- -- 82
2019-02-08 21:00:00 4.8 11 Sudoeste 15 Sudoeste 0 -- -- 79
2019-02-08 20:00:00 4.5 8 Sudoeste 13 Sudoeste 0 -- -- 77
2019-02-08 19:00:00 6.8 5 Sudoeste 14 Oeste 0 -- -- 69
2019-02-08 18:00:00 12 10 Oeste 22 Oeste 0 -- -- 50
2019-02-08 17:00:00 13.1 14 Oeste 27 Oeste 0 -- -- 47
2019-02-08 16:00:00 12.8 18 Oeste 35 Oeste 0 -- -- 43
2019-02-08 15:00:00 12.6 24 Oeste 34 Oeste 0 -- -- 43
2019-02-08 14:00:00 11.9 20 Sudoeste 30 Oeste 0 -- -- 54
2019-02-08 13:00:00 10.5 23 Oeste 34 Oeste 0 -- -- 56
2019-02-08 12:00:00 9.7 17 Sudoeste 24 Sudoeste 0 -- -- 59
2019-02-08 11:00:00 3.9 2 Nordeste 5 Norte 0 -- -- 91
2019-02-08 10:00:00 0.8 0 Calma 6 Sudoeste 0 -- -- 92
2019-02-08 09:00:00 -2 4 Sudoeste 10 Sur 0 -- -- 98
2019-02-08 08:00:00 -4.5 6 Sur 9 Sur 0 -- -- 96
2019-02-08 07:00:00 -3.8 2 Sur 5 Sur 0 -- -- 95
2019-02-08 06:00:00 -3.1 0 Calma 10 Sudoeste 0 -- -- 96
2019-02-08 05:00:00 -3.3 8 Sudoeste 10 Sudoeste 0 -- -- 96
2019-02-08 04:00:00 -3.3 5 Sur 8 Sur 0 -- -- 95
2019-02-08 03:00:00 -2.5 3 Sur 6 Sur 0 -- -- 95
2019-02-08 02:00:00 -1.9 4 Sudoeste 6 Sudoeste 0 -- -- 95
2019-02-08 01:00:00 -1 0 Calma 10 Sur 0 -- -- 92
2019-02-08 00:00:00 -0.6 9 Sur 11 Sur 0 -- -- 95
2019-02-07 23:00:00 0.1 4 Sudoeste 9 Sudoeste 0 -- -- 92
2019-02-07 22:00:00 0.9 7 Sudoeste 9 Sur 0 -- -- 91
2019-02-07 21:00:00 1.8 8 Sur 9 Sudoeste 0 -- -- 89
2019-02-07 20:00:00 3.3 6 Sur 10 Sudoeste 0 -- -- 86
2019-02-07 19:00:00 6 6 Sudoeste 17 Sudoeste 0 -- -- 75
2019-02-07 18:00:00 9.8 13 Sudoeste 22 Sudoeste 0 -- -- 64
2019-02-07 17:00:00 10.7 12 Sudoeste 26 Sudoeste 0 -- -- 63
2019-02-07 16:00:00 10.9 15 Oeste 26 Sudoeste 0 -- -- 58
2019-02-07 15:00:00 10.7 14 Sudoeste 25 Oeste 0 -- -- 52
2019-02-07 14:00:00 10.4 13 Sudoeste 24 Sudoeste 0 -- -- 52
2019-02-07 13:00:00 9.2 19 Sudoeste 28 Sudoeste 0 -- -- 52
2019-02-07 12:00:00 7.5 19 Sudoeste 27 Sudoeste 0 -- -- 58
2019-02-07 11:00:00 5.5 17 Sudoeste 24 Sudoeste 0 -- -- 71
2019-02-07 10:00:00 2.7 10 Oeste 14 Sudoeste 0 -- -- 81
2019-02-07 09:00:00 1.1 5 Sudoeste 9 Sur 0 -- -- 89
2019-02-07 08:00:00 0.4 3 Sudoeste 19 Sudoeste 0 -- -- 87
2019-02-07 07:00:00 1.1 13 Sudoeste 18 Sur 0 -- -- 87
2019-02-07 06:00:00 1.8 10 Sudoeste 17 Sudoeste 0 -- -- 85
2019-02-07 05:00:00 2.7 13 Sudoeste 16 Sudoeste 0 -- -- 86
2019-02-07 04:00:00 3.3 13 Sudoeste 17 Sudoeste 0 -- -- 87
2019-02-07 03:00:00 3.7 13 Sudoeste 16 Sudoeste 0 -- -- 87
2019-02-07 02:00:00 3.1 7 Sudoeste 14 Sudoeste 0 -- -- 88
2019-02-07 01:00:00 3.6 10 Sudoeste 14 Sudoeste 0 -- -- 88
2019-02-07 00:00:00 3.4 11 Sudoeste 13 Sudoeste 0 -- -- 88
2019-02-06 23:00:00 3 7 Sudoeste 12 Sudoeste 0 -- -- 87
2019-02-06 22:00:00 3.5 3 Sudoeste 10 Sudoeste 0 -- -- 83
2019-02-06 21:00:00 4.6 7 Sudoeste 15 Sudoeste 0 -- -- 81
2019-02-06 20:00:00 5.3 11 Sudoeste 15 Sudoeste 0 -- -- 83
2019-02-06 19:00:00 8.4 9 Sudoeste 11 Sudoeste 0 -- -- 71
2019-02-06 18:00:00 12.2 9 Sudoeste 22 Sudoeste 0 -- -- 57
2019-02-06 17:00:00 14.2 14 Sudoeste 26 Oeste 0 -- -- 48
2019-02-06 16:00:00 13.8 17 Oeste 26 Oeste 0 -- -- 53
2019-02-06 15:00:00 14 19 Oeste 25 Oeste 0 -- -- 48
2019-02-06 14:00:00 13.3 7 Sudoeste 16 Oeste 0 -- -- 51
2019-02-06 13:00:00 10.7 6 Nordeste 9 Norte 0 -- -- 66
2019-02-06 12:00:00 8.3 5 Nordeste 7 Norte 0 -- -- 79
2019-02-06 11:00:00 4.9 0 Calma 4 Nordeste 0 -- -- 89
2019-02-06 10:00:00 1.8 2 Nordeste 3 Nordeste 0 -- -- 95
2019-02-06 09:00:00 -1.4 0 Calma 6 Sudoeste 0 -- -- 98
2019-02-06 08:00:00 -2.5 5 Sudoeste 7 Sur 0 -- -- 97
2019-02-06 07:00:00 -2 0 Calma 8 Sur 0 -- -- 96
2019-02-06 06:00:00 -2.4 6 Sur 8 Sudoeste 0 -- -- 97
2019-02-06 05:00:00 -1.8 0 Calma 3 Sudoeste 0 -- -- 95
2019-02-06 04:00:00 -1.9 3 Sudoeste 5 Sudoeste 0 -- -- 95
2019-02-06 03:00:00 -1.1 0 Calma 10 Sudoeste 0 -- -- 94
2019-02-06 02:00:00 -1.1 10 Sudoeste 11 Sudoeste 0 -- -- 96
2019-02-06 01:00:00 -1.4 6 Sudoeste 9 Sur 0 -- -- 95
2019-02-06 00:00:00 0.4 0 Calma 6 Sur 0 -- -- 96
2019-02-05 23:00:00 0.8 4 Sudoeste 11 Sudoeste 0 -- -- 93
2019-02-05 22:00:00 0.8 9 Sudoeste 11 Sudoeste 0 -- -- 93
2019-02-05 21:00:00 1.3 9 Sudoeste 11 Sudoeste 0 -- -- 90
2019-02-05 20:00:00 3 9 Sur 10 Sur 0 -- -- 87
2019-02-05 19:00:00 7.5 0 Calma 12 Norte 0 -- -- 73
2019-02-05 18:00:00 10.4 10 Norte 15 Noroeste 0 -- -- 68
2019-02-05 17:00:00 13.1 4 Oeste 15 Noroeste 0 -- -- 57
2019-02-05 16:00:00 13.1 6 Sudoeste 18 Oeste 0 -- -- 56
2019-02-05 15:00:00 12.2 9 Oeste 19 Oeste 0 -- -- 59
2019-02-05 14:00:00 11.4 7 Oeste 22 Oeste 0 -- -- 59
2019-02-05 13:00:00 10.5 11 Oeste 18 Sudoeste 0 -- -- 59
2019-02-05 12:00:00 9.7 12 Sudoeste 20 Oeste 0 -- -- 57
2019-02-05 11:00:00 7.7 7 Oeste 14 Oeste 0 -- -- 55
2019-02-05 10:00:00 5.6 8 Sudoeste 12 Sudoeste 0 -- -- 61
2019-02-05 09:00:00 0.7 5 Sudoeste 6 Sudoeste 0 -- -- 85
2019-02-05 08:00:00 1.1 4 Sudoeste 9 Sudoeste 0 -- -- 81
2019-02-05 07:00:00 0.5 6 Sudoeste 9 Sudoeste 0 -- -- 86
2019-02-05 06:00:00 0.2 0 Calma 3 Nordeste 0 -- -- 86
2019-02-05 05:00:00 -0.5 0 Calma 6 Sur 0 -- -- 86
2019-02-05 04:00:00 -0.5 3 Sur 5 Sudoeste 0 -- -- 81
2019-02-05 03:00:00 -0.4 2 Nordeste 9 Sudoeste 0 -- -- 86
2019-02-05 02:00:00 -0.5 7 Sudoeste 14 Sudoeste 0 -- -- 79
2019-02-05 01:00:00 -0.6 9 Sudoeste 10 Sudoeste 0 -- -- 79
2019-02-05 00:00:00 -0.8 8 Sur 10 Sudoeste 0 -- -- 82
2019-02-04 23:00:00 -0.7 6 Sur 9 Sur 0 -- -- 81
2019-02-04 22:00:00 0 7 Sudoeste 11 Sur 0 -- -- 77
2019-02-04 21:00:00 0.8 6 Sudoeste 11 Sur 0 -- -- 74
2019-02-04 20:00:00 1.2 7 Sur 10 Sudoeste 0 -- -- 72
2019-02-04 19:00:00 2.9 0 Calma 10 Oeste 0 -- -- 63
2019-02-04 18:00:00 7 7 Oeste 17 Sudoeste 0 -- -- 48
2019-02-04 17:00:00 8.2 14 Sudoeste 19 Sudoeste 0 -- -- 42
2019-02-04 16:00:00 8.4 8 Sudoeste 19 Oeste 0 -- -- 35
2019-02-04 15:00:00 7.4 11 Oeste 18 Noroeste 0 -- -- 43
2019-02-04 14:00:00 5.4 9 Oeste 15 Oeste 0 -- -- 53
2019-02-04 13:00:00 3.5 8 Oeste 15 Oeste 0 -- -- 64
2019-02-04 12:00:00 3.2 10 Oeste 14 Oeste 0 -- -- 69
2019-02-04 11:00:00 2.3 8 Sudoeste 12 Sudoeste 0 -- -- 69
2019-02-04 10:00:00 -0.7 7 Sudoeste 11 Sudoeste 0 -- -- 85
2019-02-04 09:00:00 -3.4 4 Sudoeste 14 Sudoeste 0 -- -- 89
2019-02-04 08:00:00 -4.5 9 Sudoeste 14 Sudoeste 0 -- -- 90
2019-02-04 07:00:00 -4.4 6 Sur 9 Sur 0 -- -- 89
2019-02-04 06:00:00 -3.8 6 Sur 14 Sudoeste 0 -- -- 88
2019-02-04 05:00:00 -3.8 10 Sudoeste 14 Sudoeste 0 -- -- 89
2019-02-04 04:00:00 -3.2 9 Sudoeste 17 Sudoeste 0 -- -- 89
2019-02-04 03:00:00 -3.4 11 Sudoeste 21 Sudoeste 0 -- -- 90
2019-02-04 02:00:00 -4.2 10 Sudoeste 14 Sudoeste 0 -- -- 94
2019-02-04 01:00:00 -4.2 8 Sudoeste 14 Sudoeste 0 -- -- 92
2019-02-04 00:00:00 -3.6 10 Sur 12 Sudoeste 0 -- -- 93
2019-02-03 23:00:00 -2.8 7 Sudoeste 15 Oeste 0 -- -- 89
2019-02-03 22:00:00 -2 8 Sudoeste 14 Sudoeste 0 -- -- 90
2019-02-03 21:00:00 -1.4 8 Sudoeste 16 Noroeste 0 -- -- 87
2019-02-03 20:00:00 -0.3 10 Oeste 18 Oeste 0 -- -- 83
2019-02-03 19:00:00 -0.2 8 Noroeste 25 Norte 0 -- -- 81
2019-02-03 18:00:00 1.4 13 Noroeste 24 Noroeste 0 -- -- 76
2019-02-03 17:00:00 2 20 Norte 28 Noroeste 0 -- -- 73
2019-02-03 16:00:00 3 21 Noroeste 32 Norte 0 -- -- 70
2019-02-03 15:00:00 2.6 22 Noroeste 32 Norte 0 -- -- 69
2019-02-03 14:00:00 2 22 Noroeste 34 Noroeste 0 -- -- 72
2019-02-03 13:00:00 1.1 19 Norte 34 Norte 0 -- -- 76
2019-02-03 12:00:00 1 23 Norte 36 Norte 0 -- -- 75
2019-02-03 11:00:00 0 19 Noroeste 29 Norte 0 -- -- 80
2019-02-03 10:00:00 -0.6 12 Oeste 18 Oeste 0 -- -- 82
2019-02-03 09:00:00 -2.3 8 Sudoeste 18 Sudoeste 0 -- -- 92
2019-02-03 08:00:00 -3 9 Sudoeste 16 Oeste 0 -- -- 91
2019-02-03 07:00:00 -2.7 7 Sudoeste 14 Oeste 0 -- -- 90
2019-02-03 06:00:00 -2.1 10 Noroeste 20 Noroeste 0 -- -- 91
2019-02-03 05:00:00 -1.8 9 Noroeste 20 Oeste 0 -- -- 91
2019-02-03 04:00:00 -1.1 14 Noroeste 26 Norte 0 -- -- 86
2019-02-03 03:00:00 -1.1 13 Noroeste 30 Noroeste 0 -- -- 85
2019-02-03 02:00:00 -1.2 20 Noroeste 41 Noroeste 0 -- -- 85
2019-02-03 01:00:00 -0.8 16 Noroeste 26 Noroeste 0 -- -- 86
2019-02-03 00:00:00 -0.5 18 Noroeste 32 Noroeste 0 -- -- 87
2019-02-02 23:00:00 0 20 Noroeste 31 Noroeste 0 -- -- 83
2019-02-02 22:00:00 -0.4 12 Oeste 17 Noroeste 0 -- -- 85
2019-02-02 21:00:00 -0.6 7 Oeste 13 Oeste 0 -- -- 90
2019-02-02 20:00:00 -0.6 11 Noroeste 17 Noroeste 0 -- -- 90
2019-02-02 19:00:00 -0.4 11 Norte 24 Norte 0 -- -- 84
2019-02-02 18:00:00 0.9 21 Norte 38 Norte 0 -- -- 76
2019-02-02 17:00:00 2.5 27 Noroeste 49 Noroeste 0 -- -- 70
2019-02-02 16:00:00 2.3 29 Noroeste 51 Noroeste 0 -- -- 74
2019-02-02 15:00:00 1 29 Norte 46 Noroeste 0 -- -- 83
2019-02-02 14:00:00 1.8 28 Norte 45 Norte 0 -- -- 72
2019-02-02 13:00:00 0.6 17 Noroeste 29 Oeste 0 -- -- 83
2019-02-02 12:00:00 0.1 20 Oeste 34 Oeste 0 -- -- 87
2019-02-02 11:00:00 -0.5 24 Oeste 39 Oeste 0 -- -- 87
2019-02-02 10:00:00 -0.8 28 Oeste 44 Oeste 0 -- -- 88
2019-02-02 09:00:00 -0.8 24 Oeste 39 Oeste 0 -- -- 89
2019-02-02 08:00:00 -0.5 24 Oeste 47 Oeste 0 -- -- 90
2019-02-02 07:00:00 -0.2 26 Oeste 45 Oeste 0 -- -- 91
2019-02-02 06:00:00 0.1 30 Oeste 50 Oeste 0 -- -- 89
2019-02-02 05:00:00 0.4 23 Sudoeste 40 Sudoeste 0 -- -- 89
2019-02-02 04:00:00 0.5 27 Sudoeste 47 Sudoeste 0 -- -- 89
2019-02-02 03:00:00 0.7 25 Sudoeste 45 Oeste 0 -- -- 89
2019-02-02 02:00:00 0.8 28 Oeste 51 Sudoeste 0 -- -- 88
2019-02-02 01:00:00 1 30 Oeste 54 Oeste 0 -- -- 90
2019-02-02 00:00:00 0.5 28 Oeste 61 Oeste 0 -- -- 95
2019-02-01 23:00:00 1.3 32 Oeste 61 Oeste 0.2 -- -- 89
2019-02-01 22:00:00 1.3 34 Oeste 53 Oeste 0 -- -- 91
2019-02-01 21:00:00 0.9 30 Sudoeste 46 Sudoeste 0.2 -- -- 94
2019-02-01 20:00:00 0.5 23 Sudoeste 42 Oeste 0 -- -- 96
2019-02-01 19:00:00 1.5 31 Sudoeste 54 Sudoeste 0 -- -- 88
2019-02-01 18:00:00 1.8 30 Sudoeste 54 Oeste 0 -- -- 87
2019-02-01 17:00:00 1.3 30 Sudoeste 52 Sudoeste 0 -- -- 95
2019-02-01 16:00:00 1.2 29 Oeste 62 Sudoeste 0.6 -- -- 95
2019-02-01 15:00:00 3.1 41 Sudoeste 68 Sudoeste 0.4 -- -- 87
2019-02-01 14:00:00 4.9 37 Sudoeste 67 Sudoeste 0 -- -- 77
2019-02-01 13:00:00 5.4 42 Sudoeste 69 Sudoeste 0 -- -- 76
2019-02-01 12:00:00 4.7 37 Sudoeste 60 Sudoeste 0 -- -- 77
2019-02-01 11:00:00 3.8 35 Sudoeste 60 Sudoeste 0 -- -- 80
2019-02-01 10:00:00 3.3 31 Sudoeste 53 Sudoeste 0 -- -- 87
2019-02-01 09:00:00 2.8 26 Sudoeste 48 Sudoeste 0 -- -- 88
2019-02-01 08:00:00 3.5 32 Sudoeste 49 Sudoeste 0 -- -- 89
2019-02-01 07:00:00 3.6 23 Sudoeste 39 Sudoeste 0 -- -- 92
2019-02-01 06:00:00 3.4 15 Sur 31 Sudoeste 0 -- -- 94
2019-02-01 05:00:00 3.9 22 Sudoeste 40 Sudoeste 0 -- -- 89
2019-02-01 04:00:00 4.2 24 Sudoeste 62 Oeste 0.4 -- -- 94
2019-02-01 03:00:00 4.9 30 Sudoeste 63 Sudoeste 2 -- -- 89
2019-02-01 02:00:00 7.2 31 Sudoeste 60 Sudoeste 1.2 -- -- 92
2019-02-01 01:00:00 7.5 34 Sudoeste 64 Sudoeste 4 -- -- 93
2019-02-01 00:00:00 7.6 16 Sudoeste 53 Sudoeste 1.6 -- -- 93
2019-01-31 23:00:00 9.3 30 Sudoeste 49 Sudoeste 0 -- -- 81
2019-01-31 22:00:00 9.1 30 Sudoeste 49 Sudoeste 0 -- -- 81
2019-01-31 21:00:00 8.4 17 Sudoeste 37 Sudoeste 0 -- -- 89
2019-01-31 20:00:00 8.8 22 Sudoeste 43 Sudoeste 0 -- -- 85
2019-01-31 19:00:00 9.2 27 Sudoeste 48 Sudoeste 0 -- -- 85
2019-01-31 18:00:00 10.1 25 Sudoeste 41 Sudoeste 0 -- -- 84
2019-01-31 17:00:00 10.3 31 Sudoeste 47 Sudoeste 0 -- -- 82
2019-01-31 16:00:00 9.9 26 Sudoeste 47 Oeste 0.6 -- -- 89
2019-01-31 15:00:00 10.8 30 Sudoeste 62 Sudoeste 0 -- -- 81
2019-01-31 14:00:00 10.3 32 Sudoeste 52 Sudoeste 0 -- -- 85
2019-01-31 13:00:00 9.2 29 Sudoeste 53 Sudoeste 0 -- -- 90
2019-01-31 12:00:00 8 32 Sudoeste 58 Sudoeste 0 -- -- 93
2019-01-31 11:00:00 7 33 Sudoeste 52 Sudoeste 0 -- -- 95
2019-01-31 10:00:00 6 31 Sudoeste 53 Sudoeste 0.8 -- -- 96
2019-01-31 09:00:00 5.8 32 Sudoeste 55 Sudoeste 1.2 -- -- 94
2019-01-31 08:00:00 6.6 36 Sudoeste 59 Sudoeste 0.6 -- -- 94
2019-01-31 07:00:00 7.2 32 Sudoeste 58 Oeste 0.2 -- -- 95
2019-01-31 06:00:00 7.4 30 Sudoeste 49 Sudoeste 0.4 -- -- 95
2019-01-31 05:00:00 7.3 30 Sudoeste 50 Sudoeste 0.6 -- -- 96
2019-01-31 04:00:00 7.1 27 Sudoeste 48 Sudoeste 1 -- -- 97
2019-01-31 03:00:00 6.9 28 Sudoeste 47 Sudoeste 0.6 -- -- 96
2019-01-31 02:00:00 6.5 30 Sudoeste 55 Sudoeste 1 -- -- 97
2019-01-31 01:00:00 6.1 28 Sudoeste 43 Sudoeste 1.2 -- -- 97
2019-01-31 00:00:00 5.9 28 Sudoeste 49 Sudoeste 0.4 -- -- 96
2019-01-30 23:00:00 5.8 31 Sudoeste 56 Sudoeste 0.8 -- -- 95
2019-01-30 22:00:00 5.6 35 Sudoeste 58 Sudoeste 2 -- -- 94
2019-01-30 21:00:00 5 24 Sudoeste 45 Sudoeste 1.4 -- -- 95
2019-01-30 20:00:00 3.3 14 Sudoeste 23 Sudoeste 0.8 -- -- 96
2019-01-30 19:00:00 1.7 16 Sudoeste 30 Sudoeste 0.4 -- -- 95
2019-01-30 18:00:00 1.7 17 Sudoeste 35 Sudoeste 0.2 -- -- 93
2019-01-30 17:00:00 3.1 27 Sudoeste 46 Oeste 0 -- -- 80
2019-01-30 16:00:00 5.3 27 Sudoeste 48 Sudoeste 0 -- -- 63
2019-01-30 15:00:00 5.7 31 Sudoeste 45 Sudoeste 0 -- -- 65
2019-01-30 14:00:00 5 30 Sudoeste 45 Sudoeste 0 -- -- 70
2019-01-30 13:00:00 4.1 24 Sudoeste 39 Sudoeste 0 -- -- 77
2019-01-30 12:00:00 2.1 23 Sudoeste 37 Sudoeste 0 -- -- 84
2019-01-30 11:00:00 1.1 23 Oeste 42 Oeste 0 -- -- 89
2019-01-30 10:00:00 0.1 23 Sudoeste 37 Sudoeste 0 -- -- 92
2019-01-30 09:00:00 -0.1 20 Sudoeste 33 Oeste 0 -- -- 93
2019-01-30 08:00:00 0.1 18 Sudoeste 29 Sudoeste 0 -- -- 94
2019-01-30 07:00:00 0.2 17 Sudoeste 28 Sudoeste 0 -- -- 94
2019-01-30 06:00:00 0.5 15 Oeste 24 Oeste 0 -- -- 94
2019-01-30 05:00:00 0.8 13 Sudoeste 25 Sudoeste 0 -- -- 92
2019-01-30 04:00:00 1.3 18 Sudoeste 31 Sudoeste 0 -- -- 91
2019-01-30 03:00:00 1.6 15 Sudoeste 30 Sudoeste 0 -- -- 91
2019-01-30 02:00:00 2.1 17 Sudoeste 27 Sudoeste 0 -- -- 90
2019-01-30 01:00:00 2.5 14 Sudoeste 30 Sudoeste 0 -- -- 89
2019-01-30 00:00:00 2.4 15 Sudoeste 28 Sudoeste 0 -- -- 88
2019-01-29 23:00:00 2 18 Sudoeste 30 Sudoeste 0 -- -- 88
2019-01-29 22:00:00 2.9 17 Oeste 29 Oeste 0 -- -- 80
2019-01-29 21:00:00 3.4 16 Oeste 44 Oeste 0 -- -- 81
2019-01-29 20:00:00 4.3 23 Oeste 46 Oeste 0 -- -- 84
2019-01-29 19:00:00 5 21 Oeste 40 Oeste 0 -- -- 88
2019-01-29 18:00:00 5.7 23 Oeste 48 Oeste 0.8 -- -- 91
2019-01-29 17:00:00 5.7 28 Oeste 50 Oeste 0 -- -- 93
2019-01-29 16:00:00 5.6 32 Sudoeste 51 Oeste 0 -- -- 92
2019-01-29 15:00:00 5.3 27 Sudoeste 46 Oeste 0 -- -- 90
2019-01-29 14:00:00 5 26 Sudoeste 42 Sudoeste 0 -- -- 93
2019-01-29 13:00:00 4.4 21 Sudoeste 47 Sudoeste 0 -- -- 95
2019-01-29 12:00:00 3.9 27 Sudoeste 42 Sudoeste 0.2 -- -- 96
2019-01-29 11:00:00 3.4 32 Sudoeste 48 Sudoeste 0 -- -- 96
2019-01-29 10:00:00 2.2 25 Sudoeste 42 Sudoeste 0 -- -- 96
2019-01-29 09:00:00 1.8 23 Sudoeste 39 Sudoeste 0 -- -- 96
2019-01-29 08:00:00 1.3 28 Sudoeste 42 Sudoeste 0 -- -- 95
2019-01-29 07:00:00 1.1 23 Sudoeste 33 Sudoeste 0 -- -- 95
2019-01-29 06:00:00 0.9 19 Sudoeste 31 Sudoeste 0 -- -- 95
2019-01-29 05:00:00 0.5 15 Sudoeste 26 Sudoeste 0 -- -- 93
2019-01-29 04:00:00 -0.2 14 Sudoeste 22 Sudoeste 0 -- -- 92
2019-01-29 03:00:00 -0.2 14 Sudoeste 22 Sudoeste 0 -- -- 90
2019-01-29 02:00:00 0 15 Sudoeste 19 Sudoeste 0 -- -- 89
2019-01-29 01:00:00 0.6 12 Sudoeste 20 Sudoeste 0 -- -- 86
2019-01-29 00:00:00 1.3 12 Sudoeste 19 Sudoeste 0 -- -- 83
2019-01-28 23:00:00 1.3 9 Sudoeste 15 Sur 0 -- -- 80
2019-01-28 22:00:00 1.8 8 Sudoeste 13 Oeste 0 -- -- 79
2019-01-28 21:00:00 3.8 9 Oeste 44 Oeste 0 -- -- 71
2019-01-28 20:00:00 5.4 15 Oeste 28 Oeste 0 -- -- 66
2019-01-28 19:00:00 6.4 12 Noroeste 28 Oeste 0 -- -- 68
2019-01-28 18:00:00 8.4 27 Oeste 48 Oeste 0 -- -- 59
2019-01-28 17:00:00 8.6 26 Oeste 43 Oeste 0 -- -- 67
2019-01-28 16:00:00 8.6 26 Oeste 45 Sudoeste 0 -- -- 70
2019-01-28 15:00:00 8 29 Sudoeste 49 Sudoeste 0 -- -- 72
2019-01-28 14:00:00 7.3 29 Sudoeste 49 Sudoeste 0 -- -- 75
2019-01-28 13:00:00 5.2 30 Sudoeste 47 Sudoeste 0 -- -- 86
2019-01-28 12:00:00 3.8 27 Sudoeste 46 Sudoeste 0 -- -- 91
2019-01-28 11:00:00 2.8 26 Sudoeste 45 Sudoeste 0 -- -- 93
2019-01-28 10:00:00 2.1 28 Sudoeste 44 Sudoeste 0 -- -- 95
2019-01-28 09:00:00 1.5 28 Sudoeste 46 Sudoeste 0 -- -- 94
2019-01-28 08:00:00 1.3 27 Sudoeste 46 Sudoeste 0 -- -- 91
2019-01-28 07:00:00 1.1 29 Sudoeste 47 Sudoeste 0 -- -- 89
2019-01-28 06:00:00 1 31 Sudoeste 47 Sudoeste 0 -- -- 88
2019-01-28 05:00:00 1 27 Sudoeste 46 Sudoeste 0 -- -- 87
2019-01-28 04:00:00 0.8 24 Sudoeste 35 Oeste 0 -- -- 86
2019-01-28 03:00:00 0.1 17 Sudoeste 30 Sudoeste 0 -- -- 88
2019-01-28 02:00:00 0.5 19 Sudoeste 30 Sudoeste 0 -- -- 87
2019-01-28 01:00:00 0.6 17 Sudoeste 32 Sudoeste 0 -- -- 86
2019-01-28 00:00:00 1 15 Sudoeste 23 Sudoeste 0 -- -- 83
2019-01-27 23:00:00 1.1 11 Sudoeste 18 Sudoeste 0 -- -- 77
2019-01-27 22:00:00 2.3 8 Oeste 37 Oeste 0 -- -- 67
2019-01-27 21:00:00 3.3 13 Oeste 25 Oeste 0 -- -- 70
2019-01-27 20:00:00 4.7 17 Oeste 35 Oeste 0 -- -- 62
2019-01-27 19:00:00 5 16 Oeste 32 Noroeste 0 -- -- 61
2019-01-27 18:00:00 6.7 22 Oeste 40 Oeste 0 -- -- 58
2019-01-27 17:00:00 7.3 24 Oeste 40 Oeste 0 -- -- 58
2019-01-27 16:00:00 6.9 27 Oeste 43 Oeste 0 -- -- 58
2019-01-27 15:00:00 6.5 28 Oeste 52 Noroeste 0 -- -- 59
2019-01-27 14:00:00 7.4 30 Oeste 51 Oeste 0 -- -- 58
2019-01-27 13:00:00 6.7 26 Oeste 42 Oeste 0 -- -- 61
2019-01-27 12:00:00 5.4 25 Oeste 38 Oeste 0 -- -- 76
2019-01-27 11:00:00 4.4 28 Oeste 44 Oeste 0 -- -- 78
2019-01-27 10:00:00 2.9 20 Oeste 32 Oeste 0 -- -- 88
2019-01-27 09:00:00 2.2 21 Oeste 36 Oeste 0 -- -- 91
2019-01-27 08:00:00 2.4 26 Sudoeste 41 Oeste 0 -- -- 93
2019-01-27 07:00:00 2.5 22 Sudoeste 36 Sudoeste 0 -- -- 92
2019-01-27 06:00:00 2.9 19 Sudoeste 32 Sudoeste 0 -- -- 89
2019-01-27 05:00:00 4.1 21 Sudoeste 33 Sudoeste 0 -- -- 86
2019-01-27 04:00:00 4 24 Sudoeste 36 Sur 0 -- -- 84
2019-01-27 03:00:00 4.7 17 Sudoeste 30 Sudoeste 0 -- -- 79
2019-01-27 02:00:00 4.7 18 Sudoeste 27 Sudoeste 0 -- -- 76
2019-01-27 01:00:00 4.7 20 Sudoeste 37 Sudoeste 0 -- -- 75
2019-01-27 00:00:00 5.1 20 Sudoeste 29 Sudoeste 0 -- -- 72
2019-01-26 23:00:00 1.5 8 Sudoeste 17 Oeste 0 -- -- 85
2019-01-26 22:00:00 3.5 11 Sudoeste 16 Sudoeste 0 -- -- 76
2019-01-26 21:00:00 3.9 11 Sudoeste 18 Sudoeste 0 -- -- 77
2019-01-26 20:00:00 4.2 13 Sudoeste 15 Sudoeste 0 -- -- 75
2019-01-26 19:00:00 5.9 6 Sur 11 Sudoeste 0 -- -- 70
2019-01-26 18:00:00 11 8 Sudoeste 22 Oeste 0 -- -- 50
2019-01-26 17:00:00 12.4 14 Oeste 22 Oeste 0 -- -- 48
2019-01-26 16:00:00 12.8 15 Oeste 24 Oeste 0 -- -- 45
2019-01-26 15:00:00 12.5 16 Sudoeste 24 Oeste 0 -- -- 45
2019-01-26 14:00:00 10.9 15 Oeste 22 Sudoeste 0 -- -- 54
2019-01-26 13:00:00 8.9 14 Oeste 21 Oeste 0 -- -- 71
2019-01-26 12:00:00 7.4 11 Oeste 17 Oeste 0 -- -- 75
2019-01-26 11:00:00 6.1 9 Sudoeste 12 Sudoeste 0 -- -- 81
2019-01-26 10:00:00 1.9 6 Sur 8 Sur 0 -- -- 96
2019-01-26 09:00:00 -1.8 4 Sudoeste 10 Sudoeste 0 -- -- 97
2019-01-26 08:00:00 -2.3 7 Sur 13 Sudoeste 0 -- -- 96
2019-01-26 07:00:00 -2.2 8 Sur 10 Sudoeste 0 -- -- 96
2019-01-26 06:00:00 -1.6 10 Sudoeste 13 Sudoeste 0 -- -- 96
2019-01-26 05:00:00 -0.9 9 Sudoeste 18 Sudoeste 0 -- -- 95
2019-01-26 04:00:00 -1 10 Sudoeste 15 Sudoeste 0 -- -- 95
2019-01-26 03:00:00 -1.1 10 Sudoeste 15 Sudoeste 0 -- -- 97
2019-01-26 02:00:00 -1.4 9 Sudoeste 14 Oeste 0 -- -- 95
2019-01-26 01:00:00 -0.5 0 Calma 12 Sur 0 -- -- 94
2019-01-26 00:00:00 -0.5 9 Sur 13 Sudoeste 0 -- -- 95
2019-01-25 23:00:00 -0.2 8 Sudoeste 13 Sudoeste 0 -- -- 93
2019-01-25 22:00:00 1.3 7 Sudoeste 12 Sur 0 -- -- 90
2019-01-25 21:00:00 3.7 5 Sudoeste 15 Norte 0 -- -- 84
2019-01-25 20:00:00 4.9 14 Oeste 19 Oeste 0 -- -- 84
2019-01-25 19:00:00 5.6 6 Oeste 22 Norte 0 -- -- 80
2019-01-25 18:00:00 7.5 9 Noroeste 23 Norte 0 -- -- 72
2019-01-25 17:00:00 8.6 12 Noroeste 33 Norte 0 -- -- 72
2019-01-25 16:00:00 8.8 17 Noroeste 34 Noroeste 0 -- -- 70
2019-01-25 15:00:00 8.5 21 Noroeste 34 Noroeste 0 -- -- 71
2019-01-25 14:00:00 8.5 23 Noroeste 33 Noroeste 0 -- -- 76
2019-01-25 13:00:00 7.9 23 Noroeste 35 Noroeste 0 -- -- 78
2019-01-25 12:00:00 6.5 16 Noroeste 32 Noroeste 0 -- -- 83
2019-01-25 11:00:00 6.5 14 Noroeste 27 Noroeste 0 -- -- 84
2019-01-25 10:00:00 5.9 11 Noroeste 28 Norte 0 -- -- 88
2019-01-25 09:00:00 5.5 15 Norte 23 Noroeste 0 -- -- 89
2019-01-25 08:00:00 5.6 11 Noroeste 20 Noroeste 0 -- -- 88
2019-01-25 07:00:00 5.5 9 Noroeste 22 Noroeste 0 -- -- 88
2019-01-25 06:00:00 5.6 9 Oeste 23 Noroeste 0 -- -- 89
2019-01-25 05:00:00 5.8 16 Noroeste 27 Noroeste 0 -- -- 89
2019-01-25 04:00:00 5.8 13 Norte 30 Noroeste 0 -- -- 89
2019-01-25 03:00:00 6.2 21 Norte 34 Noroeste 0 -- -- 88
2019-01-25 02:00:00 6.3 22 Noroeste 37 Noroeste 0 -- -- 90
2019-01-25 01:00:00 6.5 14 Noroeste 25 Noroeste 0 -- -- 88
2019-01-25 00:00:00 6.3 7 Sudoeste 31 Noroeste 0 -- -- 89
2019-01-24 23:00:00 6.2 13 Norte 31 Norte 0 -- -- 90
2019-01-24 22:00:00 6.3 11 Noroeste 18 Noroeste 0 -- -- 90
2019-01-24 21:00:00 6.2 9 Noroeste 22 Norte 0 -- -- 90
2019-01-24 20:00:00 6.1 10 Norte 22 Norte 0 -- -- 89
2019-01-24 19:00:00 7 18 Norte 34 Noroeste 0 -- -- 87
2019-01-24 18:00:00 7.2 15 Norte 30 Norte 0 -- -- 88
2019-01-24 17:00:00 7.5 16 Norte 30 Norte 0 -- -- 86
2019-01-24 16:00:00 7.9 20 Noroeste 39 Norte 0 -- -- 84
2019-01-24 15:00:00 8.5 19 Norte 27 Noroeste 0 -- -- 83
2019-01-24 14:00:00 8.5 15 Noroeste 26 Noroeste 0 -- -- 85
2019-01-24 13:00:00 7.6 19 Noroeste 26 Oeste 0 -- -- 89
2019-01-24 12:00:00 6.6 17 Oeste 29 Sudoeste 0 -- -- 97
2019-01-24 11:00:00 5.6 18 Sudoeste 28 Sudoeste 0 -- -- 99
2019-01-24 10:00:00 4.8 18 Sudoeste 40 Sudoeste 0 -- -- 97
2019-01-24 09:00:00 4.7 23 Sudoeste 35 Sudoeste 0 -- -- 97
2019-01-24 08:00:00 4.5 23 Sudoeste 37 Sudoeste 0 -- -- 97
2019-01-24 07:00:00 4.7 19 Sudoeste 27 Sudoeste 0 -- -- 96
2019-01-24 06:00:00 4.7 12 Oeste 32 Sudoeste 0 -- -- 96
2019-01-24 05:00:00 4.7 20 Sudoeste 36 Sudoeste 0 -- -- 95
2019-01-24 04:00:00 4.9 23 Sudoeste 40 Oeste 0 -- -- 93
2019-01-24 03:00:00 5.2 26 Sudoeste 40 Sudoeste 0 -- -- 93
2019-01-24 02:00:00 5.3 22 Sudoeste 33 Sudoeste 0 -- -- 94
2019-01-24 01:00:00 5.6 15 Oeste 28 Sudoeste 0 -- -- 92
2019-01-24 00:00:00 5.4 15 Oeste 28 Oeste 0 -- -- 91
2019-01-23 23:00:00 5.6 18 Sudoeste 34 Sudoeste 0 -- -- 89
2019-01-23 22:00:00 5.9 23 Sudoeste 41 Sudoeste 0 -- -- 86
2019-01-23 21:00:00 6.1 15 Sudoeste 38 Oeste 0 -- -- 85
2019-01-23 20:00:00 6.7 18 Oeste 30 Oeste 0 -- -- 83
2019-01-23 19:00:00 7.6 19 Oeste 42 Oeste 0 -- -- 80
2019-01-23 18:00:00 7.8 21 Oeste 46 Oeste 0 -- -- 80
2019-01-23 17:00:00 8.1 31 Oeste 51 Oeste 0 -- -- 86
2019-01-23 16:00:00 8.5 32 Oeste 53 Oeste 0 -- -- 80
2019-01-23 15:00:00 7.9 28 Oeste 53 Oeste 0 -- -- 83
2019-01-23 14:00:00 7.3 27 Oeste 43 Oeste 0 -- -- 86
2019-01-23 13:00:00 6.7 29 Oeste 44 Oeste 0 -- -- 90
2019-01-23 12:00:00 5.3 30 Oeste 52 Oeste 0 -- -- 95
2019-01-23 11:00:00 4.7 28 Sudoeste 43 Oeste 0 -- -- 96
2019-01-23 10:00:00 4.1 28 Sudoeste 49 Sudoeste 0 -- -- 97
2019-01-23 09:00:00 3.7 30 Sudoeste 48 Sudoeste 0 -- -- 97
2019-01-23 08:00:00 3.3 28 Sudoeste 44 Sudoeste 0 -- -- 97
2019-01-23 07:00:00 3.1 29 Sudoeste 48 Sudoeste 0 -- -- 97
2019-01-23 06:00:00 2.9 25 Sudoeste 42 Sudoeste 0 -- -- 97
2019-01-23 05:00:00 2.8 26 Sudoeste 46 Sudoeste 0 -- -- 96
2019-01-23 04:00:00 2.8 27 Sudoeste 44 Oeste 0 -- -- 96
2019-01-23 03:00:00 2.7 28 Sudoeste 42 Sudoeste 0 -- -- 96
2019-01-23 02:00:00 2.6 25 Sudoeste 49 Sudoeste 0 -- -- 95
2019-01-23 01:00:00 2.7 26 Sudoeste 43 Sudoeste 0 -- -- 94
2019-01-23 00:00:00 2.9 29 Sudoeste 46 Oeste 0 -- -- 93
2019-01-22 23:00:00 2.7 24 Sudoeste 39 Oeste 0 -- -- 93
2019-01-22 22:00:00 2.6 21 Sudoeste 33 Oeste 0 -- -- 95
2019-01-22 21:00:00 2.6 21 Oeste 33 Oeste 0 -- -- 96
2019-01-22 20:00:00 2.5 16 Sudoeste 25 Sudoeste 0 -- -- 95
2019-01-22 19:00:00 2.2 13 Sudoeste 29 Sudoeste 0 -- -- 96
2019-01-22 18:00:00 2 16 Sudoeste 25 Sudoeste 0 -- -- 98
2019-01-22 17:00:00 1.5 14 Sudoeste 28 Oeste 0 -- -- 98
2019-01-22 16:00:00 0.8 20 Sudoeste 31 Sudoeste 0.4 -- -- 98
2019-01-22 15:00:00 0.4 14 Sudoeste 33 Sudoeste 0 -- -- 97
2019-01-22 14:00:00 0.6 23 Sudoeste 35 Sudoeste 0.2 -- -- 97
2019-01-22 13:00:00 0.6 21 Sudoeste 37 Sudoeste 0 -- -- 94
2019-01-22 12:00:00 1.2 23 Sudoeste 37 Sudoeste 0 -- -- 90
2019-01-22 11:00:00 0.9 21 Sudoeste 33 Sudoeste 0 -- -- 89
2019-01-22 10:00:00 0.4 16 Sudoeste 26 Sudoeste 0 -- -- 90
2019-01-22 09:00:00 0.3 15 Sudoeste 23 Sudoeste 0 -- -- 91
2019-01-22 08:00:00 0 15 Sudoeste 23 Sudoeste 0 -- -- 91
2019-01-22 07:00:00 0.2 18 Sudoeste 27 Sudoeste 0 -- -- 88
2019-01-22 06:00:00 -0.1 13 Sudoeste 18 Sudoeste 0 -- -- 87
2019-01-22 05:00:00 -0.5 4 Sudoeste 12 Sudoeste 0 -- -- 87
2019-01-22 04:00:00 0 8 Sudoeste 13 Sudoeste 0 -- -- 88
2019-01-22 03:00:00 -0.1 7 Sudoeste 13 Sudoeste 0 -- -- 88
2019-01-22 02:00:00 -0.9 9 Sudoeste 12 Sudoeste 0 -- -- 92
2019-01-22 01:00:00 -1.7 9 Sudoeste 11 Oeste 0 -- -- 93
2019-01-22 00:00:00 -1 6 Sudoeste 11 Oeste 0 -- -- 89
2019-01-21 23:00:00 -0.7 6 Sudoeste 12 Oeste 0 -- -- 90
2019-01-21 22:00:00 -0.3 10 Noroeste 13 Oeste 0 -- -- 89
2019-01-21 21:00:00 -1.8 5 Sur 8 Oeste 0 -- -- 89
2019-01-21 20:00:00 0.8 0 Calma 9 Oeste 0 -- -- 78
2019-01-21 19:00:00 1.7 6 Sudoeste 11 Noroeste 0 -- -- 80
2019-01-21 18:00:00 2.6 9 Noroeste 24 Noroeste 0 -- -- 76
2019-01-21 17:00:00 3.3 14 Norte 25 Noroeste 0 -- -- 75
2019-01-21 16:00:00 3.8 22 Norte 32 Norte 0 -- -- 70
2019-01-21 15:00:00 4.7 21 Norte 28 Norte 0 -- -- 68
2019-01-21 14:00:00 3.3 15 Noroeste 28 Noroeste 0 -- -- 78
2019-01-21 13:00:00 3.1 12 Noroeste 27 Norte 0 -- -- 81
2019-01-21 12:00:00 2.3 12 Noroeste 19 Noroeste 0 -- -- 87
2019-01-21 11:00:00 1.5 13 Noroeste 21 Noroeste 0 -- -- 91
2019-01-21 10:00:00 0.8 8 Noroeste 15 Noroeste 0 -- -- 93
2019-01-21 09:00:00 0.5 12 Noroeste 18 Noroeste 0 -- -- 93
2019-01-21 08:00:00 0.4 8 Noroeste 16 Noroeste 0 -- -- 95
2019-01-21 07:00:00 0.5 9 Noroeste 18 Noroeste 0 -- -- 95
2019-01-21 06:00:00 0.6 11 Noroeste 17 Noroeste 0 -- -- 95
2019-01-21 05:00:00 0.4 5 Oeste 12 Noroeste 0 -- -- 95
2019-01-21 04:00:00 0.8 8 Noroeste 17 Noroeste 0 -- -- 95
2019-01-21 03:00:00 0.7 6 Noroeste 18 Norte 0 -- -- 94
2019-01-21 02:00:00 0.8 7 Noroeste 23 Noroeste 0 -- -- 93
2019-01-21 01:00:00 0.5 4 Noroeste 13 Norte 0 -- -- 93
2019-01-21 00:00:00 1 8 Norte 15 Norte 0 -- -- 95
2019-01-20 23:00:00 0.4 6 Oeste 10 Noroeste 0 -- -- 94
2019-01-20 22:00:00 1 4 Oeste 14 Noroeste 0 -- -- 94
2019-01-20 21:00:00 1.2 5 Noroeste 10 Noroeste 0 -- -- 93
2019-01-20 20:00:00 1.6 3 Noroeste 17 Noroeste 0 -- -- 91
2019-01-20 19:00:00 2.6 11 Noroeste 20 Noroeste 0 -- -- 89
2019-01-20 18:00:00 3.7 12 Noroeste 28 Noroeste 0 -- -- 86
2019-01-20 17:00:00 4.5 14 Noroeste 24 Noroeste 0 -- -- 87
2019-01-20 16:00:00 4.8 18 Noroeste 34 Norte 0 -- -- 83
2019-01-20 15:00:00 4.5 19 Norte 27 Norte 0 -- -- 83
2019-01-20 14:00:00 3.9 14 Norte 28 Noroeste 0 -- -- 90
2019-01-20 13:00:00 3.6 14 Norte 21 Norte 0 -- -- 88
2019-01-20 12:00:00 3.2 15 Norte 28 Norte 0 -- -- 88
2019-01-20 11:00:00 3.2 19 Norte 30 Noroeste 0 -- -- 89
2019-01-20 10:00:00 1.5 18 Norte 28 Noroeste 0 -- -- 95
2019-01-20 09:00:00 1 13 Norte 18 Norte 0 -- -- 97
2019-01-20 08:00:00 1 6 Noroeste 13 Norte 0 -- -- 96
2019-01-20 07:00:00 1.4 5 Norte 18 Norte 0 -- -- 97
2019-01-20 06:00:00 2.5 14 Norte 21 Norte 0 -- -- 97
2019-01-20 05:00:00 3 13 Norte 26 Norte 0.2 -- -- 97
2019-01-20 04:00:00 3.8 11 Noroeste 18 Noroeste 0.4 -- -- 97
2019-01-20 03:00:00 4.4 9 Noroeste 16 Oeste 1 -- -- 97
2019-01-20 02:00:00 4.9 8 Oeste 14 Oeste 1.6 -- -- 98
2019-01-20 01:00:00 5 8 Sudoeste 14 Oeste 2.6 -- -- 97
2019-01-20 00:00:00 5.3 10 Oeste 24 Sudoeste 2.2 -- -- 97
2019-01-19 23:00:00 5.2 14 Sudoeste 29 Sudoeste 0.6 -- -- 97
2019-01-19 22:00:00 5.3 20 Sudoeste 37 Sudoeste 0.6 -- -- 97
2019-01-19 21:00:00 5.6 20 Sudoeste 32 Sudoeste 1.2 -- -- 97
2019-01-19 20:00:00 5.3 16 Sudoeste 32 Sudoeste 2.4 -- -- 97
2019-01-19 19:00:00 4.7 10 Sudoeste 20 Sudoeste 1.4 -- -- 97
2019-01-19 18:00:00 4.1 10 Sudoeste 17 Sudoeste 0.8 -- -- 97
2019-01-19 17:00:00 3.1 8 Sudoeste 16 Sudoeste 1.4 -- -- 96
2019-01-19 16:00:00 2.5 14 Sudoeste 31 Sudoeste 1.4 -- -- 94
2019-01-19 15:00:00 3.6 17 Sudoeste 30 Sudoeste 0.8 -- -- 93
2019-01-19 14:00:00 4 13 Sudoeste 25 Sudoeste 0.2 -- -- 92
2019-01-19 13:00:00 2.8 15 Sudoeste 23 Sudoeste 0 -- -- 90
2019-01-19 12:00:00 3 11 Sudoeste 18 Sudoeste 0 -- -- 84
2019-01-19 11:00:00 2.6 10 Sudoeste 18 Sudoeste 0 -- -- 85
2019-01-19 10:00:00 1.2 12 Sudoeste 17 Sudoeste 0 -- -- 90
2019-01-19 09:00:00 0.5 7 Sudoeste 14 Sur 0 -- -- 91
2019-01-19 08:00:00 1.1 4 Sudoeste 14 Oeste 0 -- -- 92
2019-01-19 07:00:00 1.2 5 Sudoeste 19 Sudoeste 0 -- -- 91
2019-01-19 06:00:00 1.2 12 Sudoeste 21 Sudoeste 0 -- -- 91
2019-01-19 05:00:00 1.1 12 Sudoeste 18 Sudoeste 0 -- -- 93
2019-01-19 04:00:00 1.2 8 Sudoeste 14 Sudoeste 0 -- -- 93
2019-01-19 03:00:00 1.2 8 Sudoeste 15 Sudoeste 0 -- -- 92
2019-01-19 02:00:00 1.2 9 Sudoeste 20 Sudoeste 0 -- -- 92
2019-01-19 01:00:00 1.2 9 Sudoeste 18 Sudoeste 0 -- -- 93
2019-01-19 00:00:00 1 9 Sudoeste 14 Sudoeste 0 -- -- 95